ENMS  Mosjøen Airport, Kjærstad Airport

Add Bookmark

Norway

Status IATA
Operational MJF
Latitude Longitude
65° 47' 2" N 13° 12' 53" E
65.783997 13.214900
Local (DST + 2) UTC (GMT + 1)
Nov 22, 2014 03:00 Nov 22, 2014 14:00
Sunrise-Sunset Local UTC
Begin Civil Twilight 08:03 07:03
Sunrise 09:15 08:15
Sunset 02:31 13:31
End Civil Twilight 03:43 14:43

Current Weather

METAR Observed VFR
ENMS 221350Z 00000KT 9999 9000N VCFG SCT006 SCT025 M01/M02 Q1025 Sat, Nov 22, 2014 @ 13:50 UTC
(10 Minutes ago)
Visual Flight Rules
Wind Visibility Clouds Conditions
Calm 10 km or more
  • Scattered at 600' AGL
  • Scattered at 2,500' AGL
  • Nearby Fog
Temperatures Readings Precipitation
Current Temp -1°C (30°F)
Dewpoint -2°C (28°F)
Humidity 93%
Altimeter 30.27"Hg
Sea Level Pressure 1025mb
Field Elevation 229.66'
None Recorded

Additional weather within a 92.6km radius of ENMS

Map ICAO Location
ENST 38.9km W (300°)
ENBN 58.2km S (232°)
ENRA 80.9km N (037°)
ESUT 85.2km E (087°)

24 Hour Weather History

Loading
-

24 Hour Weather Graphs

Loading
-

CheckWX.com is intended as a tool to help pilots better visualize weather data. It is not intended as a substitute for an official weather briefing obtained from a Flight Service Station. CheckWX.com does not meet the FAA requirements for an official pre-flight weather briefing. Therefore, it's important that pilots still call and obtain an official FSS pre-flight weather briefing.